sensor_id;sensor_type;location;lat;lon;timestamp;temperature;humidity
73322;DHT22;61549;37.044;22.128;2022-12-29T00:02:16;17.20;53.10
73322;DHT22;61549;37.044;22.128;2022-12-29T00:04:42;17.10;53.30
73322;DHT22;61549;37.044;22.128;2022-12-29T00:07:08;17.20;53.50
73322;DHT22;61549;37.044;22.128;2022-12-29T00:09:35;17.10;53.40
73322;DHT22;61549;37.044;22.128;2022-12-29T00:12:01;17.10;53.40
73322;DHT22;61549;37.044;22.128;2022-12-29T00:14:27;17.10;53.60
73322;DHT22;61549;37.044;22.128;2022-12-29T00:17:12;17.10;53.60
73322;DHT22;61549;37.044;22.128;2022-12-29T00:19:38;17.20;53.70
73322;DHT22;61549;37.044;22.128;2022-12-29T00:22:22;17.20;53.80
73322;DHT22;61549;37.044;22.128;2022-12-29T00:25:09;17.10;53.90
73322;DHT22;61549;37.044;22.128;2022-12-29T00:27:54;17.20;53.70
73322;DHT22;61549;37.044;22.128;2022-12-29T00:30:38;17.10;53.50
73322;DHT22;61549;37.044;22.128;2022-12-29T00:33:29;17.10;53.50
73322;DHT22;61549;37.044;22.128;2022-12-29T00:36:23;17.20;53.00
73322;DHT22;61549;37.044;22.128;2022-12-29T00:38:53;17.20;52.80
73322;DHT22;61549;37.044;22.128;2022-12-29T00:41:39;17.10;53.00
73322;DHT22;61549;37.044;22.128;2022-12-29T00:44:23;17.10;52.90
73322;DHT22;61549;37.044;22.128;2022-12-29T00:46:49;17.10;52.90
73322;DHT22;61549;37.044;22.128;2022-12-29T00:49:15;17.10;53.10
73322;DHT22;61549;37.044;22.128;2022-12-29T00:52:04;17.10;53.10
73322;DHT22;61549;37.044;22.128;2022-12-29T00:54:32;17.00;53.00
73322;DHT22;61549;37.044;22.128;2022-12-29T00:56:59;17.00;53.10
73322;DHT22;61549;37.044;22.128;2022-12-29T00:59:25;17.00;53.20
73322;DHT22;61549;37.044;22.128;2022-12-29T01:01:52;17.00;53.20
73322;DHT22;61549;37.044;22.128;2022-12-29T01:04:19;17.00;53.50
73322;DHT22;61549;37.044;22.128;2022-12-29T01:06:45;16.90;53.60
73322;DHT22;61549;37.044;22.128;2022-12-29T01:09:11;17.00;53.60
73322;DHT22;61549;37.044;22.128;2022-12-29T01:11:56;17.00;53.60
73322;DHT22;61549;37.044;22.128;2022-12-29T01:14:22;17.10;53.50
73322;DHT22;61549;37.044;22.128;2022-12-29T01:16:49;17.20;53.60
73322;DHT22;61549;37.044;22.128;2022-12-29T01:19:16;17.10;53.60
73322;DHT22;61549;37.044;22.128;2022-12-29T01:21:42;17.10;53.70
73322;DHT22;61549;37.044;22.128;2022-12-29T01:24:08;17.10;53.70
73322;DHT22;61549;37.044;22.128;2022-12-29T01:26:34;17.00;53.70
73322;DHT22;61549;37.044;22.128;2022-12-29T01:29:00;17.10;53.70
73322;DHT22;61549;37.044;22.128;2022-12-29T01:31:26;17.10;53.60
73322;DHT22;61549;37.044;22.128;2022-12-29T01:33:51;17.10;53.60
73322;DHT22;61549;37.044;22.128;2022-12-29T01:36:18;17.10;53.60
73322;DHT22;61549;37.044;22.128;2022-12-29T01:38:44;17.10;53.80
73322;DHT22;61549;37.044;22.128;2022-12-29T01:41:13;17.10;53.70
73322;DHT22;61549;37.044;22.128;2022-12-29T01:43:48;17.10;53.70
73322;DHT22;61549;37.044;22.128;2022-12-29T01:51:55;17.00;53.90
73322;DHT22;61549;37.044;22.128;2022-12-29T01:54:29;17.10;53.90
73322;DHT22;61549;37.044;22.128;2022-12-29T01:56:59;17.00;53.80
73322;DHT22;61549;37.044;22.128;2022-12-29T01:59:31;17.10;54.00
73322;DHT22;61549;37.044;22.128;2022-12-29T02:01:58;17.10;54.20
73322;DHT22;61549;37.044;22.128;2022-12-29T02:04:26;17.00;53.90
73322;DHT22;61549;37.044;22.128;2022-12-29T02:06:55;17.10;53.90
73322;DHT22;61549;37.044;22.128;2022-12-29T02:09:23;17.10;54.00
73322;DHT22;61549;37.044;22.128;2022-12-29T02:11:49;17.10;53.80
73322;DHT22;61549;37.044;22.128;2022-12-29T02:14:15;17.10;54.00
73322;DHT22;61549;37.044;22.128;2022-12-29T02:33:55;17.10;53.80
73322;DHT22;61549;37.044;22.128;2022-12-29T02:36:34;17.10;53.90
73322;DHT22;61549;37.044;22.128;2022-12-29T02:45:01;17.10;53.90
73322;DHT22;61549;37.044;22.128;2022-12-29T02:50:17;17.20;54.10
73322;DHT22;61549;37.044;22.128;2022-12-29T02:53:08;17.20;54.10
73322;DHT22;61549;37.044;22.128;2022-12-29T02:55:35;17.20;54.10
73322;DHT22;61549;37.044;22.128;2022-12-29T02:58:26;17.20;54.00
73322;DHT22;61549;37.044;22.128;2022-12-29T03:13:02;17.30;53.90
73322;DHT22;61549;37.044;22.128;2022-12-29T03:15:22;17.30;54.10
73322;DHT22;61549;37.044;22.128;2022-12-29T03:18:23;17.30;54.10
73322;DHT22;61549;37.044;22.128;2022-12-29T03:21:17;17.20;53.80
73322;DHT22;61549;37.044;22.128;2022-12-29T03:23:46;17.30;53.70
73322;DHT22;61549;37.044;22.128;2022-12-29T03:26:16;17.20;53.70
73322;DHT22;61549;37.044;22.128;2022-12-29T03:31:31;17.20;53.70
73322;DHT22;61549;37.044;22.128;2022-12-29T03:33:58;17.20;53.80
73322;DHT22;61549;37.044;22.128;2022-12-29T03:36:39;17.20;53.40
73322;DHT22;61549;37.044;22.128;2022-12-29T03:39:10;17.20;53.60
73322;DHT22;61549;37.044;22.128;2022-12-29T03:41:41;17.20;53.80
73322;DHT22;61549;37.044;22.128;2022-12-29T03:44:08;17.10;53.90
73322;DHT22;61549;37.044;22.128;2022-12-29T03:46:35;17.10;53.90
73322;DHT22;61549;37.044;22.128;2022-12-29T03:49:01;17.20;53.80
73322;DHT22;61549;37.044;22.128;2022-12-29T03:51:27;17.10;54.00
73322;DHT22;61549;37.044;22.128;2022-12-29T03:53:53;17.10;54.00
73322;DHT22;61549;37.044;22.128;2022-12-29T03:56:19;17.10;54.10
73322;DHT22;61549;37.044;22.128;2022-12-29T03:58:44;17.10;54.20
73322;DHT22;61549;37.044;22.128;2022-12-29T04:01:10;17.20;54.20
73322;DHT22;61549;37.044;22.128;2022-12-29T04:03:36;17.10;54.10
73322;DHT22;61549;37.044;22.128;2022-12-29T04:06:02;17.20;54.10
73322;DHT22;61549;37.044;22.128;2022-12-29T04:08:28;17.20;54.00
73322;DHT22;61549;37.044;22.128;2022-12-29T04:10:54;17.20;53.90
73322;DHT22;61549;37.044;22.128;2022-12-29T04:13:20;17.20;53.80
73322;DHT22;61549;37.044;22.128;2022-12-29T04:15:46;17.10;53.70
73322;DHT22;61549;37.044;22.128;2022-12-29T04:18:12;17.10;53.40
73322;DHT22;61549;37.044;22.128;2022-12-29T04:20:38;17.20;53.30
73322;DHT22;61549;37.044;22.128;2022-12-29T04:23:23;17.10;53.20
73322;DHT22;61549;37.044;22.128;2022-12-29T04:25:48;17.20;53.20
73322;DHT22;61549;37.044;22.128;2022-12-29T04:28:15;17.20;53.30
73322;DHT22;61549;37.044;22.128;2022-12-29T04:30:43;17.20;53.10
73322;DHT22;61549;37.044;22.128;2022-12-29T04:33:08;17.20;53.10
73322;DHT22;61549;37.044;22.128;2022-12-29T04:35:34;17.20;53.60
73322;DHT22;61549;37.044;22.128;2022-12-29T04:38:01;17.30;54.50
73322;DHT22;61549;37.044;22.128;2022-12-29T04:40:27;17.20;54.50
73322;DHT22;61549;37.044;22.128;2022-12-29T04:42:52;17.20;54.70
73322;DHT22;61549;37.044;22.128;2022-12-29T04:45:18;17.20;54.50
73322;DHT22;61549;37.044;22.128;2022-12-29T04:47:44;17.10;54.80
73322;DHT22;61549;37.044;22.128;2022-12-29T04:50:10;16.90;54.40
73322;DHT22;61549;37.044;22.128;2022-12-29T04:52:36;17.00;54.30
73322;DHT22;61549;37.044;22.128;2022-12-29T04:55:03;17.00;54.50
73322;DHT22;61549;37.044;22.128;2022-12-29T04:57:29;16.90;54.40
73322;DHT22;61549;37.044;22.128;2022-12-29T04:59:55;16.90;54.30
73322;DHT22;61549;37.044;22.128;2022-12-29T05:02:21;16.90;54.30
73322;DHT22;61549;37.044;22.128;2022-12-29T05:04:47;16.80;54.30
73322;DHT22;61549;37.044;22.128;2022-12-29T05:07:13;16.90;54.20
73322;DHT22;61549;37.044;22.128;2022-12-29T05:09:39;16.90;54.20
73322;DHT22;61549;37.044;22.128;2022-12-29T05:12:05;16.90;54.00
73322;DHT22;61549;37.044;22.128;2022-12-29T05:14:31;16.80;54.00
73322;DHT22;61549;37.044;22.128;2022-12-29T05:16:58;16.90;54.10
73322;DHT22;61549;37.044;22.128;2022-12-29T05:19:24;16.80;53.90
73322;DHT22;61549;37.044;22.128;2022-12-29T05:21:49;16.80;54.00
73322;DHT22;61549;37.044;22.128;2022-12-29T05:24:15;16.80;54.00
73322;DHT22;61549;37.044;22.128;2022-12-29T05:26:41;16.80;54.10
73322;DHT22;61549;37.044;22.128;2022-12-29T05:29:07;16.80;53.90
73322;DHT22;61549;37.044;22.128;2022-12-29T05:31:33;16.80;53.90
73322;DHT22;61549;37.044;22.128;2022-12-29T05:34:01;16.80;54.10
73322;DHT22;61549;37.044;22.128;2022-12-29T05:36:27;16.80;54.00
73322;DHT22;61549;37.044;22.128;2022-12-29T05:38:53;16.80;54.10
73322;DHT22;61549;37.044;22.128;2022-12-29T05:41:19;16.80;54.10
73322;DHT22;61549;37.044;22.128;2022-12-29T05:43:45;16.80;54.30
73322;DHT22;61549;37.044;22.128;2022-12-29T05:46:11;16.80;54.40
73322;DHT22;61549;37.044;22.128;2022-12-29T05:48:37;16.80;54.50
73322;DHT22;61549;37.044;22.128;2022-12-29T05:51:02;16.80;54.50
73322;DHT22;61549;37.044;22.128;2022-12-29T05:53:28;16.70;54.40
73322;DHT22;61549;37.044;22.128;2022-12-29T05:55:54;16.70;54.30
73322;DHT22;61549;37.044;22.128;2022-12-29T05:58:20;16.60;54.10
73322;DHT22;61549;37.044;22.128;2022-12-29T06:00:46;16.70;53.90
73322;DHT22;61549;37.044;22.128;2022-12-29T06:03:12;16.60;53.80
73322;DHT22;61549;37.044;22.128;2022-12-29T06:05:38;16.60;53.80
73322;DHT22;61549;37.044;22.128;2022-12-29T06:08:04;16.70;53.80
73322;DHT22;61549;37.044;22.128;2022-12-29T06:10:30;16.60;53.80
73322;DHT22;61549;37.044;22.128;2022-12-29T06:12:56;16.60;53.90
73322;DHT22;61549;37.044;22.128;2022-12-29T06:15:22;16.60;53.80
73322;DHT22;61549;37.044;22.128;2022-12-29T06:17:47;16.60;53.70
73322;DHT22;61549;37.044;22.128;2022-12-29T06:20:13;16.60;53.80
73322;DHT22;61549;37.044;22.128;2022-12-29T06:22:39;16.70;53.90
73322;DHT22;61549;37.044;22.128;2022-12-29T06:25:05;16.70;53.80
73322;DHT22;61549;37.044;22.128;2022-12-29T06:27:31;16.60;53.70
73322;DHT22;61549;37.044;22.128;2022-12-29T06:29:57;16.60;53.70
73322;DHT22;61549;37.044;22.128;2022-12-29T06:32:23;16.60;53.60
73322;DHT22;61549;37.044;22.128;2022-12-29T06:34:49;16.60;53.50
73322;DHT22;61549;37.044;22.128;2022-12-29T06:37:15;16.60;53.60
73322;DHT22;61549;37.044;22.128;2022-12-29T06:39:41;16.60;53.50
73322;DHT22;61549;37.044;22.128;2022-12-29T06:42:09;16.60;53.60
73322;DHT22;61549;37.044;22.128;2022-12-29T06:44:35;16.70;53.70
73322;DHT22;61549;37.044;22.128;2022-12-29T06:47:01;16.70;53.70
73322;DHT22;61549;37.044;22.128;2022-12-29T06:49:27;16.70;53.60
73322;DHT22;61549;37.044;22.128;2022-12-29T06:51:53;16.80;54.10
73322;DHT22;61549;37.044;22.128;2022-12-29T06:54:18;16.90;54.50
73322;DHT22;61549;37.044;22.128;2022-12-29T06:56:44;17.00;54.90
73322;DHT22;61549;37.044;22.128;2022-12-29T06:59:10;17.30;54.80
73322;DHT22;61549;37.044;22.128;2022-12-29T07:01:36;17.50;54.40
73322;DHT22;61549;37.044;22.128;2022-12-29T07:04:03;17.70;54.10
73322;DHT22;61549;37.044;22.128;2022-12-29T07:06:29;18.00;53.60
73322;DHT22;61549;37.044;22.128;2022-12-29T07:08:55;18.20;53.20
73322;DHT22;61549;37.044;22.128;2022-12-29T07:11:23;18.40;52.80
73322;DHT22;61549;37.044;22.128;2022-12-29T07:13:49;18.60;53.90
73322;DHT22;61549;37.044;22.128;2022-12-29T07:16:15;18.80;53.50
73322;DHT22;61549;37.044;22.128;2022-12-29T07:18:42;19.00;51.90
73322;DHT22;61549;37.044;22.128;2022-12-29T07:21:08;19.10;50.80
73322;DHT22;61549;37.044;22.128;2022-12-29T07:23:34;19.20;50.00
73322;DHT22;61549;37.044;22.128;2022-12-29T07:26:04;19.30;48.70
73322;DHT22;61549;37.044;22.128;2022-12-29T07:28:31;19.50;48.50
73322;DHT22;61549;37.044;22.128;2022-12-29T07:30:58;19.60;48.10
73322;DHT22;61549;37.044;22.128;2022-12-29T07:33:24;19.80;48.00
73322;DHT22;61549;37.044;22.128;2022-12-29T07:35:50;19.90;48.10
73322;DHT22;61549;37.044;22.128;2022-12-29T07:38:16;20.00;47.60
73322;DHT22;61549;37.044;22.128;2022-12-29T07:40:43;20.10;47.40
73322;DHT22;61549;37.044;22.128;2022-12-29T07:43:09;20.20;47.50
73322;DHT22;61549;37.044;22.128;2022-12-29T07:45:34;20.40;48.00
73322;DHT22;61549;37.044;22.128;2022-12-29T07:48:00;20.50;48.10
73322;DHT22;61549;37.044;22.128;2022-12-29T07:50:28;20.50;48.90
73322;DHT22;61549;37.044;22.128;2022-12-29T07:52:54;20.60;49.10
73322;DHT22;61549;37.044;22.128;2022-12-29T07:55:20;20.60;50.20
73322;DHT22;61549;37.044;22.128;2022-12-29T07:57:45;20.70;50.00
73322;DHT22;61549;37.044;22.128;2022-12-29T08:00:12;20.90;50.10
73322;DHT22;61549;37.044;22.128;2022-12-29T08:02:38;21.00;49.00
73322;DHT22;61549;37.044;22.128;2022-12-29T08:05:04;21.10;48.80
73322;DHT22;61549;37.044;22.128;2022-12-29T08:07:30;21.30;47.70
73322;DHT22;61549;37.044;22.128;2022-12-29T08:09:56;21.30;46.90
73322;DHT22;61549;37.044;22.128;2022-12-29T08:12:22;21.40;46.90
73322;DHT22;61549;37.044;22.128;2022-12-29T08:14:47;21.50;47.00
73322;DHT22;61549;37.044;22.128;2022-12-29T08:17:13;21.40;46.90
73322;DHT22;61549;37.044;22.128;2022-12-29T08:19:39;21.50;46.60
73322;DHT22;61549;37.044;22.128;2022-12-29T08:22:05;21.50;46.30
73322;DHT22;61549;37.044;22.128;2022-12-29T08:24:31;21.60;45.80
73322;DHT22;61549;37.044;22.128;2022-12-29T08:26:57;21.80;46.20
73322;DHT22;61549;37.044;22.128;2022-12-29T08:29:23;21.70;45.50
73322;DHT22;61549;37.044;22.128;2022-12-29T08:31:49;21.80;45.80
73322;DHT22;61549;37.044;22.128;2022-12-29T08:34:15;21.90;45.80
73322;DHT22;61549;37.044;22.128;2022-12-29T08:36:40;22.00;45.10
73322;DHT22;61549;37.044;22.128;2022-12-29T08:39:06;22.20;45.10
73322;DHT22;61549;37.044;22.128;2022-12-29T08:41:32;22.40;45.00
73322;DHT22;61549;37.044;22.128;2022-12-29T08:43:58;22.40;44.10
73322;DHT22;61549;37.044;22.128;2022-12-29T08:46:24;22.50;44.10
73322;DHT22;61549;37.044;22.128;2022-12-29T08:48:50;22.50;43.50
73322;DHT22;61549;37.044;22.128;2022-12-29T08:51:16;22.50;44.20
73322;DHT22;61549;37.044;22.128;2022-12-29T08:53:42;22.60;44.20
73322;DHT22;61549;37.044;22.128;2022-12-29T08:56:09;22.70;44.40
73322;DHT22;61549;37.044;22.128;2022-12-29T08:58:35;22.80;45.30
73322;DHT22;61549;37.044;22.128;2022-12-29T09:01:01;22.80;44.40
73322;DHT22;61549;37.044;22.128;2022-12-29T09:03:27;22.80;45.00
73322;DHT22;61549;37.044;22.128;2022-12-29T09:05:55;22.80;44.90
73322;DHT22;61549;37.044;22.128;2022-12-29T09:08:21;22.90;44.40
73322;DHT22;61549;37.044;22.128;2022-12-29T09:10:48;23.00;44.00
73322;DHT22;61549;37.044;22.128;2022-12-29T09:13:14;23.00;44.00
73322;DHT22;61549;37.044;22.128;2022-12-29T09:15:40;23.10;44.10
73322;DHT22;61549;37.044;22.128;2022-12-29T09:18:07;23.30;44.00
73322;DHT22;61549;37.044;22.128;2022-12-29T09:20:34;23.40;42.60
73322;DHT22;61549;37.044;22.128;2022-12-29T09:23:00;23.40;43.00
73322;DHT22;61549;37.044;22.128;2022-12-29T09:25:26;23.50;42.00
73322;DHT22;61549;37.044;22.128;2022-12-29T09:27:52;23.50;41.90
73322;DHT22;61549;37.044;22.128;2022-12-29T09:30:20;23.50;42.80
73322;DHT22;61549;37.044;22.128;2022-12-29T09:32:47;23.40;43.50
73322;DHT22;61549;37.044;22.128;2022-12-29T09:35:14;23.20;43.80
73322;DHT22;61549;37.044;22.128;2022-12-29T09:37:40;23.30;44.60
73322;DHT22;61549;37.044;22.128;2022-12-29T09:40:09;23.50;43.70
73322;DHT22;61549;37.044;22.128;2022-12-29T09:42:53;23.40;44.60
73322;DHT22;61549;37.044;22.128;2022-12-29T09:45:32;23.40;44.20
73322;DHT22;61549;37.044;22.128;2022-12-29T09:47:58;23.60;44.40
73322;DHT22;61549;37.044;22.128;2022-12-29T09:50:37;23.80;44.50
73322;DHT22;61549;37.044;22.128;2022-12-29T09:53:16;23.80;44.00
73322;DHT22;61549;37.044;22.128;2022-12-29T09:55:52;23.70;44.30
73322;DHT22;61549;37.044;22.128;2022-12-29T10:00:56;23.60;44.10
73322;DHT22;61549;37.044;22.128;2022-12-29T10:03:28;23.60;43.60
73322;DHT22;61549;37.044;22.128;2022-12-29T10:06:13;23.60;44.80
73322;DHT22;61549;37.044;22.128;2022-12-29T10:17:13;23.70;44.50
73322;DHT22;61549;37.044;22.128;2022-12-29T10:25:41;23.80;43.60
73322;DHT22;61549;37.044;22.128;2022-12-29T10:28:22;23.70;43.50
73322;DHT22;61549;37.044;22.128;2022-12-29T10:30:49;23.70;43.70
73322;DHT22;61549;37.044;22.128;2022-12-29T10:33:21;23.80;42.70
73322;DHT22;61549;37.044;22.128;2022-12-29T10:35:50;23.70;43.10
73322;DHT22;61549;37.044;22.128;2022-12-29T10:41:59;23.70;43.90
73322;DHT22;61549;37.044;22.128;2022-12-29T10:44:24;23.60;44.00
73322;DHT22;61549;37.044;22.128;2022-12-29T10:47:12;23.50;44.40
73322;DHT22;61549;37.044;22.128;2022-12-29T10:49:42;23.40;44.20
73322;DHT22;61549;37.044;22.128;2022-12-29T10:52:09;23.60;45.00
73322;DHT22;61549;37.044;22.128;2022-12-29T10:57:32;23.60;43.80
73322;DHT22;61549;37.044;22.128;2022-12-29T10:59:59;23.70;42.30
73322;DHT22;61549;37.044;22.128;2022-12-29T11:03:02;23.90;42.80
73322;DHT22;61549;37.044;22.128;2022-12-29T11:07:57;23.90;41.90
73322;DHT22;61549;37.044;22.128;2022-12-29T11:10:38;23.90;42.30
73322;DHT22;61549;37.044;22.128;2022-12-29T11:13:25;23.90;41.50
73322;DHT22;61549;37.044;22.128;2022-12-29T11:16:00;24.00;42.10
73322;DHT22;61549;37.044;22.128;2022-12-29T11:18:38;24.00;41.80
73322;DHT22;61549;37.044;22.128;2022-12-29T11:24:01;24.30;41.50
73322;DHT22;61549;37.044;22.128;2022-12-29T11:26:28;24.30;41.40
73322;DHT22;61549;37.044;22.128;2022-12-29T11:29:22;24.40;40.60
73322;DHT22;61549;37.044;22.128;2022-12-29T11:31:56;24.40;41.40
73322;DHT22;61549;37.044;22.128;2022-12-29T11:34:31;24.20;41.00
73322;DHT22;61549;37.044;22.128;2022-12-29T11:37:04;24.20;41.50
73322;DHT22;61549;37.044;22.128;2022-12-29T11:39:52;24.20;40.00
73322;DHT22;61549;37.044;22.128;2022-12-29T11:42:52;24.10;40.40
73322;DHT22;61549;37.044;22.128;2022-12-29T11:45:21;24.10;41.50
73322;DHT22;61549;37.044;22.128;2022-12-29T11:47:53;24.20;40.30
73322;DHT22;61549;37.044;22.128;2022-12-29T11:50:26;24.40;40.00
73322;DHT22;61549;37.044;22.128;2022-12-29T11:53:22;24.40;40.50
73322;DHT22;61549;37.044;22.128;2022-12-29T11:55:58;24.30;39.20
73322;DHT22;61549;37.044;22.128;2022-12-29T11:58:44;24.10;40.60
73322;DHT22;61549;37.044;22.128;2022-12-29T12:01:27;23.80;40.00
73322;DHT22;61549;37.044;22.128;2022-12-29T12:04:14;23.50;41.60
73322;DHT22;61549;37.044;22.128;2022-12-29T12:07:03;23.30;42.20
73322;DHT22;61549;37.044;22.128;2022-12-29T12:09:38;23.10;42.40
73322;DHT22;61549;37.044;22.128;2022-12-29T12:12:21;23.20;43.10
73322;DHT22;61549;37.044;22.128;2022-12-29T12:14:55;23.40;42.30
73322;DHT22;61549;37.044;22.128;2022-12-29T12:25:31;23.40;43.20
73322;DHT22;61549;37.044;22.128;2022-12-29T12:28:00;23.20;43.70
73322;DHT22;61549;37.044;22.128;2022-12-29T12:30:33;22.90;44.20
73322;DHT22;61549;37.044;22.128;2022-12-29T12:33:05;22.80;44.50
73322;DHT22;61549;37.044;22.128;2022-12-29T12:51:59;22.40;47.10
73322;DHT22;61549;37.044;22.128;2022-12-29T12:57:15;22.60;46.90
73322;DHT22;61549;37.044;22.128;2022-12-29T12:59:52;22.30;46.90
73322;DHT22;61549;37.044;22.128;2022-12-29T13:05:06;22.60;46.60
73322;DHT22;61549;37.044;22.128;2022-12-29T13:10:40;22.60;48.00
73322;DHT22;61549;37.044;22.128;2022-12-29T13:21:00;22.90;44.90
73322;DHT22;61549;37.044;22.128;2022-12-29T13:23:48;22.80;46.20
73322;DHT22;61549;37.044;22.128;2022-12-29T13:26:39;22.70;46.70
73322;DHT22;61549;37.044;22.128;2022-12-29T13:29:35;22.60;44.80
73322;DHT22;61549;37.044;22.128;2022-12-29T13:37:31;22.70;46.80
73322;DHT22;61549;37.044;22.128;2022-12-29T13:40:03;22.50;47.10
73322;DHT22;61549;37.044;22.128;2022-12-29T13:42:31;22.30;47.20
73322;DHT22;61549;37.044;22.128;2022-12-29T13:45:10;22.20;47.90
73322;DHT22;61549;37.044;22.128;2022-12-29T13:47:43;22.10;48.30
73322;DHT22;61549;37.044;22.128;2022-12-29T13:50:17;22.00;49.10
73322;DHT22;61549;37.044;22.128;2022-12-29T13:55:37;22.20;49.60
73322;DHT22;61549;37.044;22.128;2022-12-29T14:06:33;22.20;48.50
73322;DHT22;61549;37.044;22.128;2022-12-29T14:09:26;22.20;49.30
73322;DHT22;61549;37.044;22.128;2022-12-29T14:11:53;22.20;50.00
73322;DHT22;61549;37.044;22.128;2022-12-29T14:14:22;22.10;49.80
73322;DHT22;61549;37.044;22.128;2022-12-29T14:16:49;22.10;49.70
73322;DHT22;61549;37.044;22.128;2022-12-29T14:19:28;22.20;49.20
73322;DHT22;61549;37.044;22.128;2022-12-29T14:22:03;22.00;49.90
73322;DHT22;61549;37.044;22.128;2022-12-29T14:29:51;22.10;49.60
73322;DHT22;61549;37.044;22.128;2022-12-29T14:34:59;22.10;49.60
73322;DHT22;61549;37.044;22.128;2022-12-29T14:37:30;22.20;49.90
73322;DHT22;61549;37.044;22.128;2022-12-29T14:40:17;22.10;50.00
73322;DHT22;61549;37.044;22.128;2022-12-29T14:42:44;22.10;49.60
73322;DHT22;61549;37.044;22.128;2022-12-29T14:50:50;21.90;50.10
73322;DHT22;61549;37.044;22.128;2022-12-29T14:53:45;21.90;49.60
73322;DHT22;61549;37.044;22.128;2022-12-29T14:56:12;21.80;49.80
73322;DHT22;61549;37.044;22.128;2022-12-29T15:03:48;21.80;50.20
73322;DHT22;61549;37.044;22.128;2022-12-29T15:06:19;21.80;50.80
73322;DHT22;61549;37.044;22.128;2022-12-29T15:09:00;21.60;50.50
73322;DHT22;61549;37.044;22.128;2022-12-29T15:16:52;21.60;51.70
73322;DHT22;61549;37.044;22.128;2022-12-29T15:19:27;21.50;51.90
73322;DHT22;61549;37.044;22.128;2022-12-29T15:21:55;21.60;51.30
73322;DHT22;61549;37.044;22.128;2022-12-29T15:24:21;21.50;51.80
73322;DHT22;61549;37.044;22.128;2022-12-29T15:26:50;21.40;52.00
73322;DHT22;61549;37.044;22.128;2022-12-29T15:31:57;21.30;53.20
73322;DHT22;61549;37.044;22.128;2022-12-29T15:34:24;21.20;53.50
73322;DHT22;61549;37.044;22.128;2022-12-29T15:36:50;21.20;54.00
73322;DHT22;61549;37.044;22.128;2022-12-29T15:39:20;21.10;54.20
73322;DHT22;61549;37.044;22.128;2022-12-29T15:41:55;21.00;54.60
73322;DHT22;61549;37.044;22.128;2022-12-29T15:44:43;20.90;55.00
73322;DHT22;61549;37.044;22.128;2022-12-29T15:47:14;21.00;55.10
73322;DHT22;61549;37.044;22.128;2022-12-29T15:49:49;20.90;55.40
73322;DHT22;61549;37.044;22.128;2022-12-29T15:52:22;20.80;55.10
73322;DHT22;61549;37.044;22.128;2022-12-29T15:54:51;20.70;55.10
73322;DHT22;61549;37.044;22.128;2022-12-29T15:57:24;20.70;55.10
73322;DHT22;61549;37.044;22.128;2022-12-29T15:59:51;20.70;55.20
73322;DHT22;61549;37.044;22.128;2022-12-29T16:02:17;20.60;55.30
73322;DHT22;61549;37.044;22.128;2022-12-29T16:04:43;20.70;55.40
73322;DHT22;61549;37.044;22.128;2022-12-29T16:07:31;20.70;55.30
73322;DHT22;61549;37.044;22.128;2022-12-29T16:10:00;20.60;55.40
73322;DHT22;61549;37.044;22.128;2022-12-29T16:12:35;20.60;55.50
73322;DHT22;61549;37.044;22.128;2022-12-29T16:15:03;20.60;55.70
73322;DHT22;61549;37.044;22.128;2022-12-29T16:17:44;20.50;55.70
73322;DHT22;61549;37.044;22.128;2022-12-29T16:20:21;20.40;55.70
73322;DHT22;61549;37.044;22.128;2022-12-29T16:22:54;20.40;55.70
73322;DHT22;61549;37.044;22.128;2022-12-29T16:25:34;20.30;55.80
73322;DHT22;61549;37.044;22.128;2022-12-29T16:28:19;20.30;55.80
73322;DHT22;61549;37.044;22.128;2022-12-29T16:30:45;20.20;55.80
73322;DHT22;61549;37.044;22.128;2022-12-29T16:33:38;20.20;55.90
73322;DHT22;61549;37.044;22.128;2022-12-29T16:36:32;20.10;55.90
73322;DHT22;61549;37.044;22.128;2022-12-29T16:41:52;20.00;56.10
73322;DHT22;61549;37.044;22.128;2022-12-29T16:49:32;20.00;56.20
73322;DHT22;61549;37.044;22.128;2022-12-29T16:52:32;19.90;56.30
73322;DHT22;61549;37.044;22.128;2022-12-29T16:54:59;19.90;56.50
73322;DHT22;61549;37.044;22.128;2022-12-29T16:57:31;19.80;56.30
73322;DHT22;61549;37.044;22.128;2022-12-29T17:00:06;19.80;56.70
73322;DHT22;61549;37.044;22.128;2022-12-29T17:02:32;19.90;57.00
73322;DHT22;61549;37.044;22.128;2022-12-29T17:04:59;19.90;56.90
73322;DHT22;61549;37.044;22.128;2022-12-29T17:07:27;19.80;56.50
73322;DHT22;61549;37.044;22.128;2022-12-29T17:09:53;19.80;56.60
73322;DHT22;61549;37.044;22.128;2022-12-29T17:12:23;19.80;56.80
73322;DHT22;61549;37.044;22.128;2022-12-29T17:17:32;19.80;56.80
73322;DHT22;61549;37.044;22.128;2022-12-29T17:20:14;19.80;56.70
73322;DHT22;61549;37.044;22.128;2022-12-29T17:22:41;19.80;56.70
73322;DHT22;61549;37.044;22.128;2022-12-29T17:25:11;19.70;56.80
73322;DHT22;61549;37.044;22.128;2022-12-29T17:27:44;19.70;56.70
73322;DHT22;61549;37.044;22.128;2022-12-29T17:30:12;19.60;56.70
73322;DHT22;61549;37.044;22.128;2022-12-29T17:32:51;19.60;56.60
73322;DHT22;61549;37.044;22.128;2022-12-29T17:35:19;19.70;57.20
73322;DHT22;61549;37.044;22.128;2022-12-29T17:37:46;19.60;56.70
73322;DHT22;61549;37.044;22.128;2022-12-29T17:40:26;19.60;57.40
73322;DHT22;61549;37.044;22.128;2022-12-29T17:42:54;19.60;57.80
73322;DHT22;61549;37.044;22.128;2022-12-29T17:45:26;19.60;57.80
73322;DHT22;61549;37.044;22.128;2022-12-29T17:47:53;19.60;57.40
73322;DHT22;61549;37.044;22.128;2022-12-29T17:50:23;19.60;57.60
73322;DHT22;61549;37.044;22.128;2022-12-29T17:52:58;19.50;57.10
73322;DHT22;61549;37.044;22.128;2022-12-29T17:55:24;19.50;57.30
73322;DHT22;61549;37.044;22.128;2022-12-29T17:57:51;19.50;57.10
73322;DHT22;61549;37.044;22.128;2022-12-29T18:00:20;19.50;57.30
73322;DHT22;61549;37.044;22.128;2022-12-29T18:02:47;19.50;57.10
73322;DHT22;61549;37.044;22.128;2022-12-29T18:05:25;19.50;57.00
73322;DHT22;61549;37.044;22.128;2022-12-29T18:07:53;19.50;56.80
73322;DHT22;61549;37.044;22.128;2022-12-29T18:10:20;19.50;56.60
73322;DHT22;61549;37.044;22.128;2022-12-29T18:12:48;19.40;55.90
73322;DHT22;61549;37.044;22.128;2022-12-29T18:15:21;19.40;55.80
73322;DHT22;61549;37.044;22.128;2022-12-29T18:17:48;19.40;55.50
73322;DHT22;61549;37.044;22.128;2022-12-29T18:20:14;19.40;55.60
73322;DHT22;61549;37.044;22.128;2022-12-29T18:22:41;19.40;55.50
73322;DHT22;61549;37.044;22.128;2022-12-29T18:25:41;19.40;56.00
73322;DHT22;61549;37.044;22.128;2022-12-29T18:28:08;19.40;54.60